sensor_id;sensor_type;location;lat;lon;timestamp;P1;durP1;ratioP1;P2;durP2;ratioP2
55417;SDS011;41287;47.554;7.844;2022-09-28T00:01:44;4.95;;;2.50;;
55417;SDS011;41287;47.554;7.844;2022-09-28T00:04:10;5.07;;;2.22;;
55417;SDS011;41287;47.554;7.844;2022-09-28T00:06:36;4.32;;;2.15;;
55417;SDS011;41287;47.554;7.844;2022-09-28T00:09:02;4.47;;;2.33;;
55417;SDS011;41287;47.554;7.844;2022-09-28T00:11:31;4.40;;;2.60;;
55417;SDS011;41287;47.554;7.844;2022-09-28T00:13:58;4.30;;;2.75;;
55417;SDS011;41287;47.554;7.844;2022-09-28T00:16:27;3.60;;;2.60;;
55417;SDS011;41287;47.554;7.844;2022-09-28T00:18:55;3.15;;;2.03;;
55417;SDS011;41287;47.554;7.844;2022-09-28T00:21:21;4.60;;;2.22;;
55417;SDS011;41287;47.554;7.844;2022-09-28T00:23:52;3.67;;;2.25;;
55417;SDS011;41287;47.554;7.844;2022-09-28T00:26:53;4.00;;;2.58;;
55417;SDS011;41287;47.554;7.844;2022-09-28T00:29:21;3.60;;;2.30;;
55417;SDS011;41287;47.554;7.844;2022-09-28T00:31:47;2.63;;;1.70;;
55417;SDS011;41287;47.554;7.844;2022-09-28T00:34:16;3.08;;;1.90;;
55417;SDS011;41287;47.554;7.844;2022-09-28T00:36:42;4.03;;;2.05;;
55417;SDS011;41287;47.554;7.844;2022-09-28T00:39:10;4.25;;;2.15;;
55417;SDS011;41287;47.554;7.844;2022-09-28T00:41:36;3.88;;;2.10;;
55417;SDS011;41287;47.554;7.844;2022-09-28T00:46:56;2.67;;;1.88;;
55417;SDS011;41287;47.554;7.844;2022-09-28T00:49:42;2.95;;;2.20;;
55417;SDS011;41287;47.554;7.844;2022-09-28T00:52:13;2.65;;;2.00;;
55417;SDS011;41287;47.554;7.844;2022-09-28T00:54:43;3.65;;;2.28;;
55417;SDS011;41287;47.554;7.844;2022-09-28T00:57:11;3.17;;;1.98;;
55417;SDS011;41287;47.554;7.844;2022-09-28T00:59:38;4.65;;;2.25;;
55417;SDS011;41287;47.554;7.844;2022-09-28T01:02:06;2.28;;;1.80;;
55417;SDS011;41287;47.554;7.844;2022-09-28T01:04:34;3.90;;;2.20;;
55417;SDS011;41287;47.554;7.844;2022-09-28T01:07:00;4.32;;;2.13;;
55417;SDS011;41287;47.554;7.844;2022-09-28T01:09:26;3.83;;;2.05;;
55417;SDS011;41287;47.554;7.844;2022-09-28T01:11:51;4.65;;;2.15;;
55417;SDS011;41287;47.554;7.844;2022-09-28T01:14:17;3.20;;;2.00;;
55417;SDS011;41287;47.554;7.844;2022-09-28T01:25:52;2.65;;;2.00;;
55417;SDS011;41287;47.554;7.844;2022-09-28T01:28:33;2.30;;;1.67;;
55417;SDS011;41287;47.554;7.844;2022-09-28T01:31:05;3.95;;;2.08;;
55417;SDS011;41287;47.554;7.844;2022-09-28T01:33:47;3.63;;;2.00;;
55417;SDS011;41287;47.554;7.844;2022-09-28T01:36:24;3.03;;;2.15;;
55417;SDS011;41287;47.554;7.844;2022-09-28T01:38:59;4.07;;;2.33;;
55417;SDS011;41287;47.554;7.844;2022-09-28T01:41:29;2.63;;;2.03;;
55417;SDS011;41287;47.554;7.844;2022-09-28T01:43:58;3.28;;;2.08;;
55417;SDS011;41287;47.554;7.844;2022-09-28T01:46:34;3.00;;;2.10;;
55417;SDS011;41287;47.554;7.844;2022-09-28T01:49:04;3.55;;;2.10;;
55417;SDS011;41287;47.554;7.844;2022-09-28T01:57:46;2.72;;;1.75;;
55417;SDS011;41287;47.554;7.844;2022-09-28T02:00:13;3.75;;;2.28;;
55417;SDS011;41287;47.554;7.844;2022-09-28T02:02:43;3.00;;;1.95;;
55417;SDS011;41287;47.554;7.844;2022-09-28T02:05:17;3.53;;;1.95;;
55417;SDS011;41287;47.554;7.844;2022-09-28T02:07:49;3.42;;;1.90;;
55417;SDS011;41287;47.554;7.844;2022-09-28T02:11:21;2.72;;;1.60;;
55417;SDS011;41287;47.554;7.844;2022-09-28T02:13:28;3.63;;;2.17;;
55417;SDS011;41287;47.554;7.844;2022-09-28T02:16:08;2.53;;;1.52;;
55417;SDS011;41287;47.554;7.844;2022-09-28T02:18:57;2.78;;;2.08;;
55417;SDS011;41287;47.554;7.844;2022-09-28T02:21:27;2.72;;;1.70;;
55417;SDS011;41287;47.554;7.844;2022-09-28T02:23:57;2.70;;;1.77;;
55417;SDS011;41287;47.554;7.844;2022-09-28T02:26:34;2.90;;;1.83;;
55417;SDS011;41287;47.554;7.844;2022-09-28T02:29:05;3.00;;;1.92;;
55417;SDS011;41287;47.554;7.844;2022-09-28T02:31:32;3.25;;;2.03;;
55417;SDS011;41287;47.554;7.844;2022-09-28T02:33:59;2.67;;;1.65;;
55417;SDS011;41287;47.554;7.844;2022-09-28T02:36:25;2.17;;;1.80;;
55417;SDS011;41287;47.554;7.844;2022-09-28T02:38:52;2.55;;;1.70;;
55417;SDS011;41287;47.554;7.844;2022-09-28T02:46:58;3.00;;;1.70;;
55417;SDS011;41287;47.554;7.844;2022-09-28T02:52:27;3.78;;;1.95;;
55417;SDS011;41287;47.554;7.844;2022-09-28T03:00:25;2.42;;;1.60;;
55417;SDS011;41287;47.554;7.844;2022-09-28T03:03:03;2.83;;;1.90;;
55417;SDS011;41287;47.554;7.844;2022-09-28T03:08:09;3.43;;;2.00;;
55417;SDS011;41287;47.554;7.844;2022-09-28T03:10:50;3.83;;;2.22;;
55417;SDS011;41287;47.554;7.844;2022-09-28T03:13:20;2.72;;;1.98;;
55417;SDS011;41287;47.554;7.844;2022-09-28T03:15:49;2.72;;;1.80;;
55417;SDS011;41287;47.554;7.844;2022-09-28T03:18:15;1.92;;;1.63;;
55417;SDS011;41287;47.554;7.844;2022-09-28T03:20:42;2.67;;;1.70;;
55417;SDS011;41287;47.554;7.844;2022-09-28T03:23:07;2.28;;;1.70;;
55417;SDS011;41287;47.554;7.844;2022-09-28T03:25:33;2.80;;;1.63;;
55417;SDS011;41287;47.554;7.844;2022-09-28T03:27:58;2.25;;;1.58;;
55417;SDS011;41287;47.554;7.844;2022-09-28T03:30:23;3.55;;;1.88;;
55417;SDS011;41287;47.554;7.844;2022-09-28T03:32:57;3.33;;;1.63;;
55417;SDS011;41287;47.554;7.844;2022-09-28T03:35:24;3.50;;;2.05;;
55417;SDS011;41287;47.554;7.844;2022-09-28T03:37:52;2.80;;;1.67;;
55417;SDS011;41287;47.554;7.844;2022-09-28T03:40:18;2.60;;;1.63;;
55417;SDS011;41287;47.554;7.844;2022-09-28T03:42:44;3.00;;;1.98;;
55417;SDS011;41287;47.554;7.844;2022-09-28T03:45:14;2.17;;;1.55;;
55417;SDS011;41287;47.554;7.844;2022-09-28T03:47:43;2.28;;;1.70;;
55417;SDS011;41287;47.554;7.844;2022-09-28T03:50:09;2.65;;;1.70;;
55417;SDS011;41287;47.554;7.844;2022-09-28T03:52:34;2.53;;;1.60;;
55417;SDS011;41287;47.554;7.844;2022-09-28T03:55:00;3.03;;;1.58;;
55417;SDS011;41287;47.554;7.844;2022-09-28T03:57:25;2.08;;;1.67;;
55417;SDS011;41287;47.554;7.844;2022-09-28T03:59:51;2.38;;;1.70;;
55417;SDS011;41287;47.554;7.844;2022-09-28T04:02:16;1.38;;;1.20;;
55417;SDS011;41287;47.554;7.844;2022-09-28T04:04:41;2.35;;;1.55;;
55417;SDS011;41287;47.554;7.844;2022-09-28T04:07:06;2.08;;;1.50;;
55417;SDS011;41287;47.554;7.844;2022-09-28T04:09:35;2.40;;;1.73;;
55417;SDS011;41287;47.554;7.844;2022-09-28T04:12:01;5.00;;;1.77;;
55417;SDS011;41287;47.554;7.844;2022-09-28T04:14:26;7.15;;;2.17;;
55417;SDS011;41287;47.554;7.844;2022-09-28T04:16:51;6.43;;;1.80;;
55417;SDS011;41287;47.554;7.844;2022-09-28T04:19:19;2.65;;;1.95;;
55417;SDS011;41287;47.554;7.844;2022-09-28T04:21:46;5.05;;;1.73;;
55417;SDS011;41287;47.554;7.844;2022-09-28T04:24:12;3.80;;;1.70;;
55417;SDS011;41287;47.554;7.844;2022-09-28T04:26:38;2.25;;;1.55;;
55417;SDS011;41287;47.554;7.844;2022-09-28T04:29:03;2.80;;;1.60;;
55417;SDS011;41287;47.554;7.844;2022-09-28T04:34:08;2.42;;;1.60;;
55417;SDS011;41287;47.554;7.844;2022-09-28T04:36:34;1.88;;;1.15;;
55417;SDS011;41287;47.554;7.844;2022-09-28T04:39:00;3.20;;;1.50;;
55417;SDS011;41287;47.554;7.844;2022-09-28T04:41:25;1.92;;;1.38;;
55417;SDS011;41287;47.554;7.844;2022-09-28T04:43:51;2.95;;;1.35;;
55417;SDS011;41287;47.554;7.844;2022-09-28T04:46:17;2.25;;;1.50;;
55417;SDS011;41287;47.554;7.844;2022-09-28T04:48:42;2.30;;;1.45;;
55417;SDS011;41287;47.554;7.844;2022-09-28T04:51:10;2.30;;;1.30;;
55417;SDS011;41287;47.554;7.844;2022-09-28T04:53:35;2.20;;;1.50;;
55417;SDS011;41287;47.554;7.844;2022-09-28T04:56:02;3.65;;;1.95;;
55417;SDS011;41287;47.554;7.844;2022-09-28T04:58:37;2.53;;;1.42;;
55417;SDS011;41287;47.554;7.844;2022-09-28T05:01:04;3.72;;;1.30;;
55417;SDS011;41287;47.554;7.844;2022-09-28T05:03:37;3.58;;;1.73;;
55417;SDS011;41287;47.554;7.844;2022-09-28T05:06:03;2.83;;;1.38;;
55417;SDS011;41287;47.554;7.844;2022-09-28T05:08:30;3.17;;;1.30;;
55417;SDS011;41287;47.554;7.844;2022-09-28T05:10:57;1.98;;;1.30;;
55417;SDS011;41287;47.554;7.844;2022-09-28T05:13:25;3.53;;;1.42;;
55417;SDS011;41287;47.554;7.844;2022-09-28T05:15:52;3.67;;;1.63;;
55417;SDS011;41287;47.554;7.844;2022-09-28T05:18:19;3.78;;;1.48;;
55417;SDS011;41287;47.554;7.844;2022-09-28T05:20:45;3.05;;;1.70;;
55417;SDS011;41287;47.554;7.844;2022-09-28T05:23:11;2.40;;;1.52;;
55417;SDS011;41287;47.554;7.844;2022-09-28T05:25:40;3.42;;;1.55;;
55417;SDS011;41287;47.554;7.844;2022-09-28T05:28:06;3.78;;;1.50;;
55417;SDS011;41287;47.554;7.844;2022-09-28T05:30:33;2.50;;;1.48;;
55417;SDS011;41287;47.554;7.844;2022-09-28T05:32:59;4.13;;;1.75;;
55417;SDS011;41287;47.554;7.844;2022-09-28T05:35:24;3.40;;;1.50;;
55417;SDS011;41287;47.554;7.844;2022-09-28T05:37:50;2.78;;;1.50;;
55417;SDS011;41287;47.554;7.844;2022-09-28T05:40:15;3.28;;;1.40;;
55417;SDS011;41287;47.554;7.844;2022-09-28T05:42:43;2.83;;;1.77;;
55417;SDS011;41287;47.554;7.844;2022-09-28T05:45:08;3.05;;;1.40;;
55417;SDS011;41287;47.554;7.844;2022-09-28T05:47:37;3.40;;;1.30;;
55417;SDS011;41287;47.554;7.844;2022-09-28T05:50:07;2.83;;;1.83;;
55417;SDS011;41287;47.554;7.844;2022-09-28T05:52:35;4.22;;;1.70;;
55417;SDS011;41287;47.554;7.844;2022-09-28T05:55:01;4.78;;;1.70;;
55417;SDS011;41287;47.554;7.844;2022-09-28T05:57:27;3.42;;;1.80;;
55417;SDS011;41287;47.554;7.844;2022-09-28T05:59:53;2.45;;;1.20;;
55417;SDS011;41287;47.554;7.844;2022-09-28T06:02:19;4.40;;;1.90;;
55417;SDS011;41287;47.554;7.844;2022-09-28T06:04:44;3.50;;;1.42;;
55417;SDS011;41287;47.554;7.844;2022-09-28T06:07:12;2.85;;;1.55;;
55417;SDS011;41287;47.554;7.844;2022-09-28T06:09:37;4.25;;;1.33;;
55417;SDS011;41287;47.554;7.844;2022-09-28T06:12:04;3.63;;;1.38;;
55417;SDS011;41287;47.554;7.844;2022-09-28T06:14:30;3.33;;;1.33;;
55417;SDS011;41287;47.554;7.844;2022-09-28T06:16:55;4.15;;;1.70;;
55417;SDS011;41287;47.554;7.844;2022-09-28T06:19:20;4.85;;;1.50;;
55417;SDS011;41287;47.554;7.844;2022-09-28T06:21:48;3.08;;;1.30;;
55417;SDS011;41287;47.554;7.844;2022-09-28T06:24:13;5.60;;;1.80;;
55417;SDS011;41287;47.554;7.844;2022-09-28T06:26:38;3.80;;;1.40;;
55417;SDS011;41287;47.554;7.844;2022-09-28T06:29:04;4.68;;;1.65;;
55417;SDS011;41287;47.554;7.844;2022-09-28T06:31:29;4.30;;;1.40;;
55417;SDS011;41287;47.554;7.844;2022-09-28T06:33:55;5.40;;;1.65;;
55417;SDS011;41287;47.554;7.844;2022-09-28T06:36:26;4.13;;;1.40;;
55417;SDS011;41287;47.554;7.844;2022-09-28T06:38:53;6.53;;;1.50;;
55417;SDS011;41287;47.554;7.844;2022-09-28T06:41:18;2.70;;;1.40;;
55417;SDS011;41287;47.554;7.844;2022-09-28T06:43:43;3.17;;;1.52;;
55417;SDS011;41287;47.554;7.844;2022-09-28T06:46:10;3.15;;;1.17;;
55417;SDS011;41287;47.554;7.844;2022-09-28T06:48:37;4.03;;;1.50;;
55417;SDS011;41287;47.554;7.844;2022-09-28T06:51:02;3.08;;;1.45;;
55417;SDS011;41287;47.554;7.844;2022-09-28T06:53:28;3.78;;;1.30;;
55417;SDS011;41287;47.554;7.844;2022-09-28T06:55:54;5.05;;;1.73;;
55417;SDS011;41287;47.554;7.844;2022-09-28T06:58:20;5.28;;;1.60;;
55417;SDS011;41287;47.554;7.844;2022-09-28T07:00:46;2.95;;;1.30;;
55417;SDS011;41287;47.554;7.844;2022-09-28T07:03:17;2.38;;;1.35;;
55417;SDS011;41287;47.554;7.844;2022-09-28T07:05:51;3.65;;;1.30;;
55417;SDS011;41287;47.554;7.844;2022-09-28T07:08:19;3.30;;;1.30;;
55417;SDS011;41287;47.554;7.844;2022-09-28T07:10:50;3.47;;;1.30;;
55417;SDS011;41287;47.554;7.844;2022-09-28T07:13:20;1.55;;;1.10;;
55417;SDS011;41287;47.554;7.844;2022-09-28T07:15:47;4.40;;;1.90;;
55417;SDS011;41287;47.554;7.844;2022-09-28T07:18:13;3.92;;;1.40;;
55417;SDS011;41287;47.554;7.844;2022-09-28T07:20:38;2.67;;;1.33;;
55417;SDS011;41287;47.554;7.844;2022-09-28T07:23:04;2.67;;;1.30;;
55417;SDS011;41287;47.554;7.844;2022-09-28T07:25:32;4.20;;;1.58;;
55417;SDS011;41287;47.554;7.844;2022-09-28T07:28:00;4.20;;;1.60;;
55417;SDS011;41287;47.554;7.844;2022-09-28T07:30:27;3.88;;;1.38;;
55417;SDS011;41287;47.554;7.844;2022-09-28T07:32:53;4.13;;;1.25;;
55417;SDS011;41287;47.554;7.844;2022-09-28T07:35:19;4.88;;;1.40;;
55417;SDS011;41287;47.554;7.844;2022-09-28T07:37:46;3.10;;;1.48;;
55417;SDS011;41287;47.554;7.844;2022-09-28T07:40:11;3.53;;;1.25;;
55417;SDS011;41287;47.554;7.844;2022-09-28T07:42:55;3.13;;;1.15;;
55417;SDS011;41287;47.554;7.844;2022-09-28T07:45:21;5.10;;;1.38;;
55417;SDS011;41287;47.554;7.844;2022-09-28T07:47:49;3.85;;;1.60;;
55417;SDS011;41287;47.554;7.844;2022-09-28T07:50:24;2.90;;;1.30;;
55417;SDS011;41287;47.554;7.844;2022-09-28T07:52:49;4.13;;;1.27;;
55417;SDS011;41287;47.554;7.844;2022-09-28T07:55:14;4.97;;;1.42;;
55417;SDS011;41287;47.554;7.844;2022-09-28T07:57:40;2.95;;;1.40;;
55417;SDS011;41287;47.554;7.844;2022-09-28T08:00:05;2.63;;;1.48;;
55417;SDS011;41287;47.554;7.844;2022-09-28T08:02:33;5.43;;;1.45;;
55417;SDS011;41287;47.554;7.844;2022-09-28T08:04:59;2.65;;;1.35;;
55417;SDS011;41287;47.554;7.844;2022-09-28T08:07:25;4.15;;;1.38;;
55417;SDS011;41287;47.554;7.844;2022-09-28T08:09:50;4.57;;;1.42;;
55417;SDS011;41287;47.554;7.844;2022-09-28T08:12:16;4.15;;;1.55;;
55417;SDS011;41287;47.554;7.844;2022-09-28T08:14:43;3.65;;;1.30;;
55417;SDS011;41287;47.554;7.844;2022-09-28T08:17:09;5.05;;;1.50;;
55417;SDS011;41287;47.554;7.844;2022-09-28T08:19:35;3.70;;;1.63;;
55417;SDS011;41287;47.554;7.844;2022-09-28T08:22:19;2.50;;;1.30;;
55417;SDS011;41287;47.554;7.844;2022-09-28T08:24:46;3.03;;;1.40;;
55417;SDS011;41287;47.554;7.844;2022-09-28T08:27:14;3.15;;;1.08;;
55417;SDS011;41287;47.554;7.844;2022-09-28T08:29:40;2.78;;;1.25;;
55417;SDS011;41287;47.554;7.844;2022-09-28T08:32:07;2.88;;;1.27;;
55417;SDS011;41287;47.554;7.844;2022-09-28T08:34:36;2.25;;;1.20;;
55417;SDS011;41287;47.554;7.844;2022-09-28T08:37:03;2.88;;;1.40;;
55417;SDS011;41287;47.554;7.844;2022-09-28T08:39:30;2.83;;;1.20;;
55417;SDS011;41287;47.554;7.844;2022-09-28T08:44:50;3.80;;;1.38;;
55417;SDS011;41287;47.554;7.844;2022-09-28T08:47:28;3.85;;;1.65;;
55417;SDS011;41287;47.554;7.844;2022-09-28T08:50:30;3.42;;;1.75;;
55417;SDS011;41287;47.554;7.844;2022-09-28T08:52:58;2.22;;;1.30;;
55417;SDS011;41287;47.554;7.844;2022-09-28T08:55:33;5.30;;;1.48;;
55417;SDS011;41287;47.554;7.844;2022-09-28T08:58:21;2.90;;;1.17;;
55417;SDS011;41287;47.554;7.844;2022-09-28T09:00:52;2.80;;;1.20;;
55417;SDS011;41287;47.554;7.844;2022-09-28T09:03:19;2.83;;;1.63;;
55417;SDS011;41287;47.554;7.844;2022-09-28T09:22:28;2.63;;;1.50;;
55417;SDS011;41287;47.554;7.844;2022-09-28T09:25:02;2.83;;;1.25;;
55417;SDS011;41287;47.554;7.844;2022-09-28T09:39:54;3.47;;;1.00;;
55417;SDS011;41287;47.554;7.844;2022-09-28T09:47:39;2.13;;;1.05;;
55417;SDS011;41287;47.554;7.844;2022-09-28T09:50:32;2.78;;;1.05;;
55417;SDS011;41287;47.554;7.844;2022-09-28T09:53:12;3.85;;;1.20;;
55417;SDS011;41287;47.554;7.844;2022-09-28T09:55:45;2.33;;;1.10;;
55417;SDS011;41287;47.554;7.844;2022-09-28T09:58:16;2.97;;;0.98;;
55417;SDS011;41287;47.554;7.844;2022-09-28T10:00:46;1.58;;;1.00;;
55417;SDS011;41287;47.554;7.844;2022-09-28T10:03:20;3.05;;;1.00;;
55417;SDS011;41287;47.554;7.844;2022-09-28T10:05:57;2.17;;;0.80;;
55417;SDS011;41287;47.554;7.844;2022-09-28T10:08:27;2.42;;;0.80;;
55417;SDS011;41287;47.554;7.844;2022-09-28T10:11:04;1.63;;;0.90;;
55417;SDS011;41287;47.554;7.844;2022-09-28T10:13:36;2.70;;;1.17;;
55417;SDS011;41287;47.554;7.844;2022-09-28T10:16:03;2.28;;;0.73;;
55417;SDS011;41287;47.554;7.844;2022-09-28T10:18:29;1.45;;;0.90;;
55417;SDS011;41287;47.554;7.844;2022-09-28T10:20:55;3.03;;;1.00;;
55417;SDS011;41287;47.554;7.844;2022-09-28T10:23:23;3.97;;;1.05;;
55417;SDS011;41287;47.554;7.844;2022-09-28T10:25:52;6.07;;;1.15;;
55417;SDS011;41287;47.554;7.844;2022-09-28T10:28:57;4.55;;;1.10;;
55417;SDS011;41287;47.554;7.844;2022-09-28T10:31:51;2.17;;;1.08;;
55417;SDS011;41287;47.554;7.844;2022-09-28T10:34:14;4.95;;;1.00;;
55417;SDS011;41287;47.554;7.844;2022-09-28T10:36:52;2.25;;;1.00;;
55417;SDS011;41287;47.554;7.844;2022-09-28T10:39:31;3.75;;;1.05;;
55417;SDS011;41287;47.554;7.844;2022-09-28T10:41:59;2.95;;;1.13;;
55417;SDS011;41287;47.554;7.844;2022-09-28T10:44:29;1.77;;;0.70;;
55417;SDS011;41287;47.554;7.844;2022-09-28T10:46:58;4.03;;;1.30;;
55417;SDS011;41287;47.554;7.844;2022-09-28T10:49:26;3.17;;;0.90;;
55417;SDS011;41287;47.554;7.844;2022-09-28T10:51:54;4.40;;;0.80;;
55417;SDS011;41287;47.554;7.844;2022-09-28T10:54:24;2.78;;;1.05;;
55417;SDS011;41287;47.554;7.844;2022-09-28T10:56:51;1.90;;;1.00;;
55417;SDS011;41287;47.554;7.844;2022-09-28T10:59:22;4.68;;;1.25;;
55417;SDS011;41287;47.554;7.844;2022-09-28T11:01:47;3.38;;;1.23;;
55417;SDS011;41287;47.554;7.844;2022-09-28T11:04:19;4.03;;;1.35;;
55417;SDS011;41287;47.554;7.844;2022-09-28T11:06:48;7.75;;;1.17;;
55417;SDS011;41287;47.554;7.844;2022-09-28T11:09:22;3.58;;;1.20;;
55417;SDS011;41287;47.554;7.844;2022-09-28T11:11:52;3.35;;;1.25;;
55417;SDS011;41287;47.554;7.844;2022-09-28T11:14:36;3.13;;;1.20;;
55417;SDS011;41287;47.554;7.844;2022-09-28T11:19:50;2.65;;;0.80;;
55417;SDS011;41287;47.554;7.844;2022-09-28T11:24:58;3.88;;;1.10;;
55417;SDS011;41287;47.554;7.844;2022-09-28T11:27:38;4.20;;;1.13;;
55417;SDS011;41287;47.554;7.844;2022-09-28T11:30:04;2.97;;;1.13;;
55417;SDS011;41287;47.554;7.844;2022-09-28T11:32:45;3.15;;;0.90;;
55417;SDS011;41287;47.554;7.844;2022-09-28T11:35:21;2.92;;;1.20;;
55417;SDS011;41287;47.554;7.844;2022-09-28T11:48:52;2.40;;;1.02;;
55417;SDS011;41287;47.554;7.844;2022-09-28T11:51:23;3.38;;;1.10;;
55417;SDS011;41287;47.554;7.844;2022-09-28T11:53:55;3.50;;;0.95;;
55417;SDS011;41287;47.554;7.844;2022-09-28T11:56:33;2.88;;;1.10;;
55417;SDS011;41287;47.554;7.844;2022-09-28T11:59:04;5.35;;;1.60;;
55417;SDS011;41287;47.554;7.844;2022-09-28T12:01:46;3.50;;;0.90;;
55417;SDS011;41287;47.554;7.844;2022-09-28T12:10:27;2.92;;;1.05;;
55417;SDS011;41287;47.554;7.844;2022-09-28T12:12:57;3.05;;;1.15;;
55417;SDS011;41287;47.554;7.844;2022-09-28T12:15:39;4.03;;;1.13;;
55417;SDS011;41287;47.554;7.844;2022-09-28T12:18:06;3.72;;;1.48;;
55417;SDS011;41287;47.554;7.844;2022-09-28T12:20:38;3.13;;;1.10;;
55417;SDS011;41287;47.554;7.844;2022-09-28T12:23:24;1.77;;;1.08;;
55417;SDS011;41287;47.554;7.844;2022-09-28T12:25:57;3.78;;;1.23;;
55417;SDS011;41287;47.554;7.844;2022-09-28T12:30:58;3.20;;;1.13;;
55417;SDS011;41287;47.554;7.844;2022-09-28T12:33:48;2.92;;;0.80;;
55417;SDS011;41287;47.554;7.844;2022-09-28T12:42:10;3.50;;;0.85;;
55417;SDS011;41287;47.554;7.844;2022-09-28T12:50:21;3.15;;;1.08;;
55417;SDS011;41287;47.554;7.844;2022-09-28T12:55:42;2.83;;;1.00;;
55417;SDS011;41287;47.554;7.844;2022-09-28T13:07:03;3.08;;;1.10;;
55417;SDS011;41287;47.554;7.844;2022-09-28T13:14:57;3.40;;;1.05;;
55417;SDS011;41287;47.554;7.844;2022-09-28T13:23:20;1.92;;;0.90;;
55417;SDS011;41287;47.554;7.844;2022-09-28T13:25:54;3.63;;;1.13;;
55417;SDS011;41287;47.554;7.844;2022-09-28T13:28:23;2.00;;;1.05;;
55417;SDS011;41287;47.554;7.844;2022-09-28T13:30:52;3.90;;;0.90;;
55417;SDS011;41287;47.554;7.844;2022-09-28T13:33:34;4.13;;;1.13;;
55417;SDS011;41287;47.554;7.844;2022-09-28T13:36:03;2.67;;;1.13;;
55417;SDS011;41287;47.554;7.844;2022-09-28T13:38:48;3.85;;;1.10;;
55417;SDS011;41287;47.554;7.844;2022-09-28T13:41:14;2.28;;;1.10;;
55417;SDS011;41287;47.554;7.844;2022-09-28T13:54:33;4.38;;;1.20;;
55417;SDS011;41287;47.554;7.844;2022-09-28T14:02:47;3.42;;;0.98;;
55417;SDS011;41287;47.554;7.844;2022-09-28T14:10:48;2.10;;;1.00;;
55417;SDS011;41287;47.554;7.844;2022-09-28T14:16:19;3.10;;;1.20;;
55417;SDS011;41287;47.554;7.844;2022-09-28T14:18:50;2.95;;;1.00;;
55417;SDS011;41287;47.554;7.844;2022-09-28T14:24:01;6.60;;;1.55;;
55417;SDS011;41287;47.554;7.844;2022-09-28T14:29:28;5.10;;;1.20;;
55417;SDS011;41287;47.554;7.844;2022-09-28T14:31:56;4.47;;;1.65;;
55417;SDS011;41287;47.554;7.844;2022-09-28T14:34:31;4.35;;;1.23;;
55417;SDS011;41287;47.554;7.844;2022-09-28T14:37:00;5.70;;;1.27;;
55417;SDS011;41287;47.554;7.844;2022-09-28T14:39:47;5.55;;;1.42;;
55417;SDS011;41287;47.554;7.844;2022-09-28T14:42:31;3.92;;;1.38;;
55417;SDS011;41287;47.554;7.844;2022-09-28T14:47:50;5.10;;;1.35;;
55417;SDS011;41287;47.554;7.844;2022-09-28T14:50:35;3.35;;;1.20;;
55417;SDS011;41287;47.554;7.844;2022-09-28T14:53:04;5.55;;;1.63;;
55417;SDS011;41287;47.554;7.844;2022-09-28T14:58:04;6.93;;;1.40;;
55417;SDS011;41287;47.554;7.844;2022-09-28T15:00:37;8.20;;;1.25;;
55417;SDS011;41287;47.554;7.844;2022-09-28T15:03:08;5.55;;;1.00;;
55417;SDS011;41287;47.554;7.844;2022-09-28T15:05:40;4.75;;;1.35;;
55417;SDS011;41287;47.554;7.844;2022-09-28T15:08:09;3.70;;;1.20;;
55417;SDS011;41287;47.554;7.844;2022-09-28T15:10:36;6.85;;;1.50;;
55417;SDS011;41287;47.554;7.844;2022-09-28T15:13:15;5.95;;;1.15;;
55417;SDS011;41287;47.554;7.844;2022-09-28T15:15:46;4.55;;;1.38;;
55417;SDS011;41287;47.554;7.844;2022-09-28T15:20:44;3.03;;;1.08;;
55417;SDS011;41287;47.554;7.844;2022-09-28T15:26:04;2.90;;;0.80;;
55417;SDS011;41287;47.554;7.844;2022-09-28T15:28:33;3.05;;;0.93;;
55417;SDS011;41287;47.554;7.844;2022-09-28T15:31:00;3.92;;;1.10;;
55417;SDS011;41287;47.554;7.844;2022-09-28T15:33:31;5.85;;;1.00;;
55417;SDS011;41287;47.554;7.844;2022-09-28T15:36:24;5.75;;;1.08;;
55417;SDS011;41287;47.554;7.844;2022-09-28T15:38:54;3.25;;;0.82;;
55417;SDS011;41287;47.554;7.844;2022-09-28T15:41:22;5.55;;;0.88;;
55417;SDS011;41287;47.554;7.844;2022-09-28T15:46:36;7.20;;;0.98;;
55417;SDS011;41287;47.554;7.844;2022-09-28T15:49:05;3.95;;;1.20;;
55417;SDS011;41287;47.554;7.844;2022-09-28T15:51:44;3.40;;;1.10;;
55417;SDS011;41287;47.554;7.844;2022-09-28T15:54:18;6.70;;;1.17;;
55417;SDS011;41287;47.554;7.844;2022-09-28T15:56:55;5.60;;;1.52;;
55417;SDS011;41287;47.554;7.844;2022-09-28T16:10:26;5.68;;;1.63;;
55417;SDS011;41287;47.554;7.844;2022-09-28T16:12:56;3.20;;;0.95;;
55417;SDS011;41287;47.554;7.844;2022-09-28T16:15:44;6.10;;;1.08;;
55417;SDS011;41287;47.554;7.844;2022-09-28T16:20:40;5.85;;;1.20;;
55417;SDS011;41287;47.554;7.844;2022-09-28T16:25:57;3.58;;;0.93;;
55417;SDS011;41287;47.554;7.844;2022-09-28T16:28:44;6.90;;;1.65;;
55417;SDS011;41287;47.554;7.844;2022-09-28T16:33:40;3.03;;;0.82;;
55417;SDS011;41287;47.554;7.844;2022-09-28T16:36:10;5.78;;;1.20;;
55417;SDS011;41287;47.554;7.844;2022-09-28T16:38:37;5.03;;;0.90;;
55417;SDS011;41287;47.554;7.844;2022-09-28T16:41:03;4.43;;;0.93;;
55417;SDS011;41287;47.554;7.844;2022-09-28T16:43:29;3.78;;;1.42;;
55417;SDS011;41287;47.554;7.844;2022-09-28T16:45:59;5.57;;;1.05;;
55417;SDS011;41287;47.554;7.844;2022-09-28T16:48:35;2.50;;;1.02;;
55417;SDS011;41287;47.554;7.844;2022-09-28T16:51:04;4.03;;;1.35;;
55417;SDS011;41287;47.554;7.844;2022-09-28T16:53:29;3.20;;;1.10;;
55417;SDS011;41287;47.554;7.844;2022-09-28T16:56:21;6.32;;;1.30;;
55417;SDS011;41287;47.554;7.844;2022-09-28T16:58:46;4.40;;;1.05;;
55417;SDS011;41287;47.554;7.844;2022-09-28T17:01:13;4.03;;;1.15;;
55417;SDS011;41287;47.554;7.844;2022-09-28T17:03:39;3.80;;;1.17;;
55417;SDS011;41287;47.554;7.844;2022-09-28T17:06:10;4.03;;;0.88;;
55417;SDS011;41287;47.554;7.844;2022-09-28T17:08:37;3.97;;;1.63;;
55417;SDS011;41287;47.554;7.844;2022-09-28T17:11:02;4.88;;;1.17;;
55417;SDS011;41287;47.554;7.844;2022-09-28T17:13:30;4.90;;;1.38;;
55417;SDS011;41287;47.554;7.844;2022-09-28T17:16:01;4.65;;;1.10;;
55417;SDS011;41287;47.554;7.844;2022-09-28T17:18:33;3.90;;;1.00;;
55417;SDS011;41287;47.554;7.844;2022-09-28T17:21:02;4.90;;;1.10;;
55417;SDS011;41287;47.554;7.844;2022-09-28T17:23:28;4.90;;;1.30;;
55417;SDS011;41287;47.554;7.844;2022-09-28T17:25:53;2.88;;;1.08;;
55417;SDS011;41287;47.554;7.844;2022-09-28T17:28:21;5.05;;;0.90;;
55417;SDS011;41287;47.554;7.844;2022-09-28T17:30:48;6.03;;;1.60;;
55417;SDS011;41287;47.554;7.844;2022-09-28T17:33:14;3.05;;;0.90;;
55417;SDS011;41287;47.554;7.844;2022-09-28T17:35:40;2.97;;;1.10;;
55417;SDS011;41287;47.554;7.844;2022-09-28T17:38:08;3.25;;;0.90;;
55417;SDS011;41287;47.554;7.844;2022-09-28T17:40:35;6.15;;;1.30;;
55417;SDS011;41287;47.554;7.844;2022-09-28T17:43:01;1.77;;;0.90;;
55417;SDS011;41287;47.554;7.844;2022-09-28T17:45:30;3.15;;;1.10;;
55417;SDS011;41287;47.554;7.844;2022-09-28T17:47:56;3.67;;;1.27;;
55417;SDS011;41287;47.554;7.844;2022-09-28T17:50:24;4.53;;;1.50;;
55417;SDS011;41287;47.554;7.844;2022-09-28T17:52:51;4.72;;;1.08;;
55417;SDS011;41287;47.554;7.844;2022-09-28T17:55:22;2.83;;;0.90;;
55417;SDS011;41287;47.554;7.844;2022-09-28T17:57:51;5.88;;;1.10;;
55417;SDS011;41287;47.554;7.844;2022-09-28T18:00:17;4.30;;;1.15;;
55417;SDS011;41287;47.554;7.844;2022-09-28T18:02:42;3.58;;;0.80;;
55417;SDS011;41287;47.554;7.844;2022-09-28T18:05:11;4.20;;;1.13;;
55417;SDS011;41287;47.554;7.844;2022-09-28T18:07:39;3.92;;;1.20;;
55417;SDS011;41287;47.554;7.844;2022-09-28T18:10:06;6.95;;;1.50;;
55417;SDS011;41287;47.554;7.844;2022-09-28T18:12:37;6.80;;;1.30;;
55417;SDS011;41287;47.554;7.844;2022-09-28T18:15:02;4.30;;;1.17;;
55417;SDS011;41287;47.554;7.844;2022-09-28T18:17:28;5.95;;;1.40;;
55417;SDS011;41287;47.554;7.844;2022-09-28T18:19:53;6.68;;;1.23;;
55417;SDS011;41287;47.554;7.844;2022-09-28T18:22:25;3.08;;;1.05;;